Amman, Jordan

2:30 PM EEST on July 23, 2014 (GMT +0300)
Mars Mount (IMARIKHA2) Elev 2953 ft | 31.93 °N, 35.92 °E | Change Station

Current weather conditions updated 1 minute ago

Clear
Clear
86.2 °F
Feels Like 84 °F
N
12.0
Wind Variable Wind from NW
Gusts 20.6 mph

Today is forecast to be Warmer than yesterday.

Today
High -- | Low -- °F
--% Chance of Precip.
Yesterday
High -- | Low -- °F
Precip. -- in
5:45 AM 7:39 PM
Waning Crescent, 11% visible
Pressure 29.89 in
Visibility 3.7 miles
Clouds
Heat Index 84 °F
Dew Point 54 °F
Humidity 33%
Rainfall 0.00 in
Snow Depth Not available.
UV Not available.
Pollen Not available.
Air Quality Not available.
Flu Activity Not available.
METAR OJAM 231100Z 36014KT 6000 NSC 31/11 Q1012 NOSIG

More Conditions Fewer Conditions

Pressure 29.89 in
Visibility 3.7 miles
Clouds
Heat Index 84 °F
Dew Point 54 °F
Humidity 33%
Rainfall 0.00 in
Snow Depth Not available.
UV Not available.
Pollen Not available.
Air Quality Not available.
Flu Activity Not available.
METAR OJAM 231100Z 36014KT 6000 NSC 31/11 Q1012 NOSIG

More Conditions Fewer Conditions

10-Day Weather Forecast

Almanac

Astronomy

Jul. 23, 2014 Rise Set
Actual Time 5:45 AM EEST 7:39 PM EEST
Civil Twilight 5:18 AM EEST 8:06 PM EEST
Nautical Twilight 4:45 AM EEST 8:39 PM EEST
Astronomical Twilight 4:10 AM EEST 9:14 PM EEST
Moon 2:46 AM EEST 4:52 PM EEST
Length of Visible Light 14h 48m
Length of Day
13h 53m
Tomorrow will be 1m 13s shorter.
Waning Crescent, 11% of the Moon is Illuminated
Today
Waning Crescent
Jul 26
New
Aug 3
First Quarter
Aug 10
Full
Aug 17
Last Quarter

Yesterday's Extremes

Country Highs Country Lows

Community

WunderPhotos

Upload Photos

1,736,560 photos uploaded!

Nearby

Snow Depth

Not available.

Earthquake Activity

City Distance Mag. Time & Date
No recent earthquake activity has been reported nearby.
Minimum magnitude displayed is 2.5.

Coastal Water Temperatures

Place Temperature
No Stations Reporting

Nearby Weather Stations

Station Location Temp. Heat Index Dew Point Humidity Wind Precip. Elev Updated Type
Mars Mount, Amman 86.2 °F 84 °F 54 °F 33% NW  at  12.0 mph 0.00 in / hr 2953 ft 2:29 PM EEST Normal
Al Jubayhah, Balqa 78.4 °F 79 °F 56 °F 47% North  at  15.9 mph 0.00 in / hr 3234 ft 11:08 AM EEST Rapid Fire
Umm As Summaq, Amman 87.1 °F 86 °F 57 °F 36% NW  at  5.6 mph 0.00 in / hr 3251 ft 2:30 PM EEST Rapid Fire
Amman, Marj al-Hamam 83.5 °F 83 °F 58 °F 42% West  at  14.7 mph 0.00 in / hr 3035 ft 2:29 PM IDT Normal

Show More Stations Show Fewer Stations